Time;durP1;ratioP1;P1;durP2;ratioP2;P2;SDS_P1;SDS_P2;PMS_P1;PMS_P2;Temp;Humidity;BMP_temperature;BMP_pressure;BME280_temperature;BME280_humidity;BME280_pressure;Samples;Min_cycle;Max_cycle;Signal;HPM_P1;HPM_P2
2022/01/08 00:00:19;;;;;;;;;;;;;;;-0.30;54.87;99888.88;5313456;27;32818;-83
2022/01/08 00:02:48;;;;;;;;;;;;;;;-0.08;54.31;99891.31;5319975;27;34128;-83
2022/01/08 00:05:18;;;;;;;;;;;;;;;-0.14;54.25;99883.47;5313793;27;34014;-83
2022/01/08 00:07:47;;;;;;;;;;;;;;;-0.41;55.13;99880.88;5314281;27;34881;-84
2022/01/08 00:10:15;;;;;;;;;;;;;;;-0.27;55.07;99877.09;5314365;27;33066;-84
2022/01/08 00:12:44;;;;;;;;;;;;;;;0.03;54.63;99867.84;5314100;27;34336;-84
2022/01/08 00:15:13;;;;;;;;;;;;;;;0.22;54.27;99870.16;5320042;27;33999;-83
2022/01/08 00:17:42;;;;;;;;;;;;;;;0.34;53.68;99860.34;5298687;27;33383;-84
2022/01/08 00:20:11;;;;;;;;;;;;;;;0.04;54.46;99869.56;5314298;27;34277;-83
2022/01/08 00:22:42;;;;;;;;;;;;;;;0.26;54.15;99861.78;5314007;27;32952;-83
2022/01/08 00:25:11;;;;;;;;;;;;;;;0.49;53.76;99870.16;5313802;27;34956;-83
2022/01/08 00:27:39;;;;;;;;;;;;;;;0.45;53.90;99868.31;5314729;27;33882;-84
2022/01/08 00:30:08;;;;;;;;;;;;;;;0.20;54.44;99866.69;5320363;27;32718;-84
2022/01/08 00:32:38;;;;;;;;;;;;;;;0.38;54.00;99863.84;5314041;27;34070;-84
2022/01/08 00:35:08;;;;;;;;;;;;;;;0.41;54.07;99863.91;5313798;27;33835;-84
2022/01/08 00:37:37;;;;;;;;;;;;;;;0.44;53.43;99863.19;5314187;27;34295;-83
2022/01/08 00:40:06;;;;;;;;;;;;;;;0.10;54.08;99854.47;5314552;27;33125;-84
2022/01/08 00:42:34;;;;;;;;;;;;;;;0.02;54.46;99841.47;5320472;27;34818;-83
2022/01/08 00:45:03;;;;;;;;;;;;;;;-0.10;54.91;99847.03;5314263;27;34175;-84
2022/01/08 00:47:32;;;;;;;;;;;;;;;-0.16;55.03;99844.31;5313810;27;33600;-84
2022/01/08 00:50:03;;;;;;;;;;;;;;;-0.01;54.31;99842.22;5313876;27;33368;-83
2022/01/08 00:52:32;;;;;;;;;;;;;;;-0.18;55.12;99833.19;5314230;27;33833;-84
2022/01/08 00:55:00;;;;;;;;;;;;;;;0.11;54.45;99831.56;5320518;27;34354;-84
2022/01/08 00:57:28;;;;;;;;;;;;;;;0.18;54.20;99823.28;5314086;27;33769;-84
2022/01/08 00:59:57;;;;;;;;;;;;;;;-0.16;54.98;99825.59;5314365;27;33918;-84
2022/01/08 01:02:27;;;;;;;;;;;;;;;-0.03;54.99;99828.56;5313754;27;35102;-83
2022/01/08 01:04:55;;;;;;;;;;;;;;;0.01;55.13;99821.03;5313429;27;34105;-84
2022/01/08 01:07:26;;;;;;;;;;;;;;;0.03;55.18;99827.06;5315735;27;34609;-84
2022/01/08 01:09:54;;;;;;;;;;;;;;;0.04;55.21;99816.00;5320375;27;34032;-84
2022/01/08 01:12:22;;;;;;;;;;;;;;;-0.02;55.07;99807.34;5313828;27;34431;-84
2022/01/08 01:15:07;;;;;;;;;;;;;;;-0.09;55.34;99797.78;5314170;27;34624;-84
2022/01/08 01:17:36;;;;;;;;;;;;;;;0.12;55.07;99789.94;5314050;27;34015;-84
2022/01/08 01:20:05;;;;;;;;;;;;;;;0.04;55.33;99788.81;5314696;27;33104;-83
2022/01/08 01:22:39;;;;;;;;;;;;;;;0.25;54.44;99787.75;5320018;27;34289;-84
2022/01/08 01:25:10;;;;;;;;;;;;;;;-0.01;55.35;99791.22;5315238;27;34822;-83
2022/01/08 01:30:53;;;;;;;;;;;;;;;0.24;54.81;99784.31;5301395;27;34000;-85
2022/01/08 01:41:47;;;;;;;;;;;;;;;-0.24;56.54;99777.78;5313292;27;33290;-83
2022/01/08 01:47:03;;;;;;;;;;;;;;;-0.22;56.30;99770.16;5314793;27;33890;-83
2022/01/08 01:49:32;;;;;;;;;;;;;;;-0.23;55.84;99764.19;5315267;27;34018;-84
2022/01/08 01:52:01;;;;;;;;;;;;;;;-0.52;56.24;99770.91;5314446;27;33070;-83
2022/01/08 01:54:31;;;;;;;;;;;;;;;-0.31;55.28;99760.56;5314709;27;33887;-83
2022/01/08 01:57:01;;;;;;;;;;;;;;;-0.37;55.52;99754.41;5316119;27;35071;-83
2022/01/08 01:59:29;;;;;;;;;;;;;;;-0.44;55.33;99756.72;5320799;27;34437;-84
2022/01/08 02:01:58;;;;;;;;;;;;;;;-0.52;55.78;99760.72;5313850;27;33355;-84
2022/01/08 02:04:27;;;;;;;;;;;;;;;-0.49;55.54;99755.72;5315045;27;33636;-84
2022/01/08 02:06:55;;;;;;;;;;;;;;;-0.42;55.21;99754.25;5315101;27;34138;-83
2022/01/08 02:09:24;;;;;;;;;;;;;;;-0.89;56.13;99756.13;5314596;27;34175;-83
2022/01/08 02:11:57;;;;;;;;;;;;;;;-0.65;55.70;99758.63;5320891;27;32400;-83
2022/01/08 02:14:25;;;;;;;;;;;;;;;-0.55;55.77;99755.53;5314566;27;34865;-83
2022/01/08 02:16:54;;;;;;;;;;;;;;;-0.74;56.35;99751.53;5314616;27;34263;-84
2022/01/08 02:19:23;;;;;;;;;;;;;;;-1.09;57.76;99757.97;5314822;27;33950;-84
2022/01/08 02:21:53;;;;;;;;;;;;;;;-1.07;57.66;99753.78;5314381;27;32951;-84
2022/01/08 02:24:22;;;;;;;;;;;;;;;-0.95;57.56;99749.13;5320578;27;34564;-84
2022/01/08 02:26:50;;;;;;;;;;;;;;;-0.80;57.03;99750.44;5314854;27;35011;-83
2022/01/08 02:29:23;;;;;;;;;;;;;;;-0.84;57.29;99746.94;5314686;27;34759;-84
2022/01/08 02:31:55;;;;;;;;;;;;;;;-0.95;57.47;99738.06;5314367;27;33361;-83
2022/01/08 02:34:26;;;;;;;;;;;;;;;-1.15;57.94;99745.03;5314063;27;34863;-83
2022/01/08 02:36:57;;;;;;;;;;;;;;;-1.44;58.28;99738.94;5314042;27;33948;-83
2022/01/08 02:39:25;;;;;;;;;;;;;;;-1.27;57.68;99739.53;5320778;27;33252;-83
2022/01/08 02:41:57;;;;;;;;;;;;;;;-1.31;57.90;99738.53;5317783;27;33439;-84
2022/01/08 02:44:26;;;;;;;;;;;;;;;-1.29;57.80;99735.22;5314526;27;33664;-84
2022/01/08 02:46:55;;;;;;;;;;;;;;;-1.11;57.34;99736.69;5313808;27;34365;-84
2022/01/08 02:49:23;;;;;;;;;;;;;;;-1.32;57.62;99735.13;5313674;27;35044;-83
2022/01/08 02:51:52;;;;;;;;;;;;;;;-1.48;57.97;99739.63;5320693;27;33526;-84
2022/01/08 02:54:21;;;;;;;;;;;;;;;-1.37;57.70;99739.19;5313960;27;33686;-83
2022/01/08 02:56:50;;;;;;;;;;;;;;;-1.59;58.08;99731.63;5314852;27;34968;-83
2022/01/08 02:59:19;;;;;;;;;;;;;;;-1.93;59.80;99725.31;5315003;27;33754;-83
2022/01/08 03:01:47;;;;;;;;;;;;;;;-1.32;57.68;99721.53;5313765;27;32466;-83
2022/01/08 03:04:16;;;;;;;;;;;;;;;-1.38;57.72;99726.41;5318644;27;32799;-83
2022/01/08 03:06:45;;;;;;;;;;;;;;;-1.49;57.97;99728.59;5314303;27;34127;-83
2022/01/08 03:09:13;;;;;;;;;;;;;;;-1.37;58.05;99728.16;5314233;27;33884;-83
2022/01/08 03:11:43;;;;;;;;;;;;;;;-1.70;58.68;99731.22;5314080;27;33338;-84
2022/01/08 03:14:11;;;;;;;;;;;;;;;-1.30;57.78;99725.88;5313490;27;33654;-83
2022/01/08 03:16:42;;;;;;;;;;;;;;;-1.24;57.57;99716.72;5320064;27;35016;-83
2022/01/08 03:19:17;;;;;;;;;;;;;;;-1.39;57.78;99727.22;5320603;27;34937;-83
2022/01/08 03:21:51;;;;;;;;;;;;;;;-1.35;57.43;99732.50;5313709;27;33598;-83
2022/01/08 03:24:26;;;;;;;;;;;;;;;-1.19;57.13;99735.56;5313931;27;34472;-83
2022/01/08 03:26:56;;;;;;;;;;;;;;;-1.35;57.18;99731.63;5313561;27;33738;-83
2022/01/08 03:29:25;;;;;;;;;;;;;;;-1.59;57.90;99727.41;5314052;27;33933;-84
2022/01/08 03:31:53;;;;;;;;;;;;;;;-1.61;57.95;99730.69;5320922;27;33738;-83
2022/01/08 03:34:22;;;;;;;;;;;;;;;-1.43;57.54;99733.87;5314206;27;34189;-83
2022/01/08 03:36:51;;;;;;;;;;;;;;;-1.25;56.08;99736.22;5313413;27;34946;-83
2022/01/08 03:39:20;;;;;;;;;;;;;;;-1.59;56.81;99737.56;5313715;27;34760;-83
2022/01/08 03:41:49;;;;;;;;;;;;;;;-1.68;57.01;99737.22;5312554;27;34314;-83
2022/01/08 03:44:19;;;;;;;;;;;;;;;-1.77;57.19;99740.28;5318787;27;33682;-83
2022/01/08 03:46:47;;;;;;;;;;;;;;;-1.84;57.25;99738.31;5320144;27;33694;-82
2022/01/08 03:49:24;;;;;;;;;;;;;;;-1.77;56.74;99742.84;5314551;27;34031;-83
2022/01/08 03:51:53;;;;;;;;;;;;;;;-1.76;57.07;99748.81;5314638;27;33141;-83
2022/01/08 03:54:21;;;;;;;;;;;;;;;-1.73;57.26;99746.38;5314326;27;34928;-83
2022/01/08 03:56:50;;;;;;;;;;;;;;;-2.11;57.82;99742.37;5314032;27;35028;-83
2022/01/08 03:59:20;;;;;;;;;;;;;;;-2.10;58.29;99741.56;5320355;27;34843;-83
2022/01/08 04:01:48;;;;;;;;;;;;;;;-2.05;58.08;99738.41;5314002;27;34172;-83
2022/01/08 04:04:17;;;;;;;;;;;;;;;-2.09;58.40;99740.78;5313365;27;33679;-83
2022/01/08 04:06:45;;;;;;;;;;;;;;;-2.03;58.27;99738.44;5313793;27;34180;-83
2022/01/08 04:09:14;;;;;;;;;;;;;;;-1.70;57.08;99733.75;5314660;27;34902;-84
2022/01/08 04:11:43;;;;;;;;;;;;;;;-1.84;57.58;99732.38;5321696;27;33548;-84
2022/01/08 04:14:12;;;;;;;;;;;;;;;-1.75;57.56;99728.50;5315033;27;34327;-82
2022/01/08 04:16:46;;;;;;;;;;;;;;;-1.94;58.03;99724.41;5315371;27;34156;-83
2022/01/08 04:19:16;;;;;;;;;;;;;;;-1.70;57.81;99717.63;5315211;27;34236;-83
2022/01/08 04:22:10;;;;;;;;;;;;;;;-1.77;58.00;99711.47;5314809;27;33222;-83
2022/01/08 04:24:39;;;;;;;;;;;;;;;-1.63;57.73;99711.97;5314323;27;33975;-83
2022/01/08 04:27:08;;;;;;;;;;;;;;;-1.87;58.39;99704.31;5321079;27;34672;-83
2022/01/08 04:29:36;;;;;;;;;;;;;;;-1.67;57.65;99705.03;5314505;27;34223;-83
2022/01/08 04:32:06;;;;;;;;;;;;;;;-1.66;57.49;99709.31;5314750;27;33608;-83
2022/01/08 04:34:35;;;;;;;;;;;;;;;-1.70;57.41;99704.91;5314621;27;33910;-83
2022/01/08 04:37:04;;;;;;;;;;;;;;;-1.95;58.14;99696.41;5314192;27;34125;-83
2022/01/08 04:39:32;;;;;;;;;;;;;;;-1.83;58.03;99694.31;5315825;27;34048;-83
2022/01/08 04:42:00;;;;;;;;;;;;;;;-1.62;57.55;99689.13;5321149;27;33401;-84
2022/01/08 04:44:29;;;;;;;;;;;;;;;-1.66;57.51;99681.34;5314135;27;34868;-84
2022/01/08 04:46:58;;;;;;;;;;;;;;;-1.61;57.35;99674.72;5315207;27;34537;-83
2022/01/08 04:49:27;;;;;;;;;;;;;;;-1.55;57.59;99680.91;5314542;27;33849;-83
2022/01/08 04:51:56;;;;;;;;;;;;;;;-1.39;57.29;99672.13;5314517;27;33544;-83
2022/01/08 04:54:25;;;;;;;;;;;;;;;-1.49;57.46;99682.78;5320785;27;34929;-82
2022/01/08 04:56:53;;;;;;;;;;;;;;;-1.60;57.29;99679.00;5314389;27;34145;-82
2022/01/08 04:59:25;;;;;;;;;;;;;;;-1.41;56.37;99677.97;5314011;27;34202;-83
2022/01/08 05:01:53;;;;;;;;;;;;;;;-1.34;55.74;99673.13;5314745;27;33410;-83
2022/01/08 05:04:22;;;;;;;;;;;;;;;-1.59;56.59;99670.56;5314925;27;34568;-83
2022/01/08 05:06:52;;;;;;;;;;;;;;;-1.50;56.30;99665.78;5320814;27;34471;-83
2022/01/08 05:09:20;;;;;;;;;;;;;;;-1.56;56.64;99657.94;5314558;27;34291;-82
2022/01/08 05:11:48;;;;;;;;;;;;;;;-1.67;57.20;99657.56;5314794;27;32995;-82
2022/01/08 05:14:17;;;;;;;;;;;;;;;-1.75;57.46;99662.38;5314380;27;34011;-83
2022/01/08 05:16:46;;;;;;;;;;;;;;;-1.58;56.45;99677.38;5314551;27;34243;-82
2022/01/08 05:19:22;;;;;;;;;;;;;;;-1.61;56.31;99687.44;5321090;27;34957;-83
2022/01/08 05:21:57;;;;;;;;;;;;;;;-1.44;55.71;99666.00;5318125;27;33837;-83
2022/01/08 05:24:25;;;;;;;;;;;;;;;-1.49;56.30;99667.53;5314863;27;34846;-84
2022/01/08 05:26:54;;;;;;;;;;;;;;;-1.25;54.85;99671.72;5314287;27;33754;-83
2022/01/08 05:29:22;;;;;;;;;;;;;;;-1.33;55.10;99682.50;5316019;27;34195;-83
2022/01/08 05:31:52;;;;;;;;;;;;;;;-1.48;55.61;99688.75;5314203;27;34515;-83
2022/01/08 05:34:20;;;;;;;;;;;;;;;-1.41;54.77;99676.28;5320679;27;34854;-83
2022/01/08 05:36:49;;;;;;;;;;;;;;;-1.47;55.74;99685.38;5314540;27;33918;-83
2022/01/08 05:39:18;;;;;;;;;;;;;;;-1.40;55.98;99677.12;5314886;27;33740;-83
2022/01/08 05:41:47;;;;;;;;;;;;;;;-1.95;57.13;99681.16;5314443;27;35098;-83
2022/01/08 05:44:15;;;;;;;;;;;;;;;-1.52;56.01;99678.47;5313641;27;33864;-83
2022/01/08 05:46:46;;;;;;;;;;;;;;;-1.45;55.80;99674.47;5320905;27;34260;-83
2022/01/08 05:49:17;;;;;;;;;;;;;;;-1.33;55.78;99674.88;5317284;27;34275;-83
2022/01/08 05:51:45;;;;;;;;;;;;;;;-1.46;56.04;99671.84;5314808;27;32596;-82
2022/01/08 05:54:14;;;;;;;;;;;;;;;-1.81;56.82;99679.09;5314281;27;34848;-83
2022/01/08 05:56:44;;;;;;;;;;;;;;;-1.57;55.93;99682.53;5313735;27;34217;-83
2022/01/08 05:59:12;;;;;;;;;;;;;;;-1.61;55.98;99682.38;5320943;27;34092;-83
2022/01/08 06:01:40;;;;;;;;;;;;;;;-1.80;56.34;99696.97;5317370;27;33203;-83
2022/01/08 06:04:09;;;;;;;;;;;;;;;-1.52;55.48;99692.88;5314202;27;34014;-83
2022/01/08 06:06:39;;;;;;;;;;;;;;;-1.82;56.19;99693.47;5315262;27;35074;-83
2022/01/08 06:09:08;;;;;;;;;;;;;;;-1.72;55.75;99702.31;5313844;27;33619;-83
2022/01/08 06:11:36;;;;;;;;;;;;;;;-1.80;55.93;99704.59;5307768;27;32889;-83
2022/01/08 06:14:06;;;;;;;;;;;;;;;-1.99;56.54;99718.28;5321000;27;34926;-83
2022/01/08 06:16:36;;;;;;;;;;;;;;;-2.02;56.49;99712.25;5314020;27;33830;-83
2022/01/08 06:19:06;;;;;;;;;;;;;;;-1.95;55.97;99721.84;5314151;27;34188;-83
2022/01/08 06:21:34;;;;;;;;;;;;;;;-1.93;55.89;99730.38;5314153;27;33285;-83
2022/01/08 06:24:02;;;;;;;;;;;;;;;-1.92;55.78;99724.47;5313825;27;33661;-83
2022/01/08 06:26:33;;;;;;;;;;;;;;;-2.17;56.75;99718.47;5320618;27;34237;-83
2022/01/08 06:29:01;;;;;;;;;;;;;;;-2.12;56.45;99718.66;5313647;27;34084;-83
2022/01/08 06:31:31;;;;;;;;;;;;;;;-2.02;56.36;99714.78;5313795;27;33544;-83
2022/01/08 06:34:00;;;;;;;;;;;;;;;-2.27;57.24;99713.84;5314092;27;33725;-82
2022/01/08 06:36:28;;;;;;;;;;;;;;;-2.21;57.11;99719.16;5314746;27;34115;-84
2022/01/08 06:38:56;;;;;;;;;;;;;;;-2.25;57.44;99707.12;5321035;27;33952;-83
2022/01/08 06:41:25;;;;;;;;;;;;;;;-2.34;57.59;99706.81;5314261;27;33411;-84
2022/01/08 06:43:53;;;;;;;;;;;;;;;-2.26;57.18;99710.50;5314230;27;34064;-83
2022/01/08 06:46:22;;;;;;;;;;;;;;;-2.29;57.23;99718.00;5313898;27;34267;-83
2022/01/08 06:48:52;;;;;;;;;;;;;;;-2.13;56.79;99713.50;5313748;27;34175;-83
2022/01/08 06:51:20;;;;;;;;;;;;;;;-2.31;57.39;99703.50;5320770;27;33068;-84
2022/01/08 06:53:48;;;;;;;;;;;;;;;-2.36;57.72;99701.66;5317301;27;34031;-83
2022/01/08 06:56:18;;;;;;;;;;;;;;;-2.09;56.95;99695.03;5314009;27;34106;-83
2022/01/08 06:58:46;;;;;;;;;;;;;;;-1.89;56.47;99696.63;5314144;27;34333;-83
2022/01/08 07:01:14;;;;;;;;;;;;;;;-2.18;56.92;99698.06;5313599;27;33415;-83
2022/01/08 07:03:43;;;;;;;;;;;;;;;-2.24;57.05;99701.25;5313785;27;34076;-83
2022/01/08 07:06:13;;;;;;;;;;;;;;;-1.96;56.69;99695.53;5320780;27;34966;-82
2022/01/08 07:08:42;;;;;;;;;;;;;;;-1.92;57.06;99700.75;5314149;27;34730;-83
2022/01/08 07:11:11;;;;;;;;;;;;;;;-1.95;57.23;99693.88;5314007;27;33136;-83
2022/01/08 07:13:39;;;;;;;;;;;;;;;-2.19;58.04;99687.06;5313669;27;34073;-83
2022/01/08 07:16:07;;;;;;;;;;;;;;;-2.05;57.80;99690.13;5314120;27;34888;-82
2022/01/08 07:18:36;;;;;;;;;;;;;;;-2.09;57.74;99688.25;5320604;27;33857;-82
2022/01/08 07:21:04;;;;;;;;;;;;;;;-2.02;57.64;99680.06;5314226;27;33940;-83
2022/01/08 07:23:34;;;;;;;;;;;;;;;-2.17;57.85;99677.81;5314123;27;35235;-83
2022/01/08 07:26:03;;;;;;;;;;;;;;;-2.08;57.72;99684.91;5313784;27;34306;-83
2022/01/08 07:28:31;;;;;;;;;;;;;;;-1.89;57.24;99676.28;5314235;27;33249;-83
2022/01/08 07:30:59;;;;;;;;;;;;;;;-1.75;56.72;99680.19;5320079;27;33195;-83
2022/01/08 07:33:28;;;;;;;;;;;;;;;-1.68;56.58;99675.31;5313632;27;34331;-83
2022/01/08 07:35:56;;;;;;;;;;;;;;;-1.85;56.60;99674.72;5314109;27;34944;-82
2022/01/08 07:38:44;;;;;;;;;;;;;;;-1.96;57.22;99684.47;5313739;27;33978;-82
2022/01/08 07:41:12;;;;;;;;;;;;;;;-1.62;55.54;99681.50;5313782;27;33495;-83
2022/01/08 07:43:41;;;;;;;;;;;;;;;-1.81;56.71;99676.53;5314368;27;34200;-83
2022/01/08 07:46:09;;;;;;;;;;;;;;;-1.98;56.86;99683.56;5320846;27;34314;-84
2022/01/08 07:48:38;;;;;;;;;;;;;;;-1.86;57.30;99685.69;5314730;27;33554;-84
2022/01/08 07:51:06;;;;;;;;;;;;;;;-1.80;57.28;99685.94;5314839;27;33380;-83
2022/01/08 07:53:35;;;;;;;;;;;;;;;-1.63;57.01;99673.81;5314559;27;34197;-83
2022/01/08 07:56:08;;;;;;;;;;;;;;;-1.48;56.82;99664.16;5314730;27;34522;-83
2022/01/08 07:58:37;;;;;;;;;;;;;;;-1.53;57.20;99663.13;5321023;27;34535;-83
2022/01/08 08:01:05;;;;;;;;;;;;;;;-1.24;56.21;99650.53;5314407;27;32954;-83
2022/01/08 08:03:34;;;;;;;;;;;;;;;-1.01;55.52;99651.31;5315213;27;34882;-83
2022/01/08 08:06:02;;;;;;;;;;;;;;;-1.09;55.85;99658.66;5315060;27;34270;-83
2022/01/08 08:08:31;;;;;;;;;;;;;;;-0.80;54.72;99656.22;5314805;27;34214;-84
2022/01/08 08:10:59;;;;;;;;;;;;;;;-0.92;55.48;99652.47;5321087;27;33120;-83
2022/01/08 08:13:29;;;;;;;;;;;;;;;-1.06;55.76;99653.69;5315344;27;34140;-83
2022/01/08 08:15:57;;;;;;;;;;;;;;;-0.83;55.94;99651.03;5314595;27;34287;-83
2022/01/08 08:18:26;;;;;;;;;;;;;;;-0.46;54.83;99640.28;5314509;27;34922;-84
2022/01/08 08:20:55;;;;;;;;;;;;;;;-0.48;55.05;99632.59;5314672;27;33462;-83
2022/01/08 08:23:30;;;;;;;;;;;;;;;-0.61;54.65;99627.94;5320050;27;33976;-83
2022/01/08 08:25:58;;;;;;;;;;;;;;;-0.35;54.07;99625.31;5320969;27;34229;-83
2022/01/08 08:28:29;;;;;;;;;;;;;;;-0.37;54.05;99632.91;5314672;27;34295;-83
2022/01/08 08:30:58;;;;;;;;;;;;;;;-0.36;54.82;99623.56;5314483;27;33020;-83
2022/01/08 08:33:26;;;;;;;;;;;;;;;-0.25;55.12;99627.31;5314711;27;34220;-83
2022/01/08 08:35:54;;;;;;;;;;;;;;;-0.02;54.29;99615.22;5314561;27;33994;-83
2022/01/08 08:38:23;;;;;;;;;;;;;;;0.22;52.92;99620.16;5321526;27;35016;-84
2022/01/08 08:40:54;;;;;;;;;;;;;;;0.08;53.49;99618.91;5314775;27;34256;-83
2022/01/08 08:43:23;;;;;;;;;;;;;;;0.19;53.47;99609.84;5312449;27;33099;-84
2022/01/08 08:45:53;;;;;;;;;;;;;;;0.26;53.48;99614.28;5313963;27;33674;-83
2022/01/08 08:48:21;;;;;;;;;;;;;;;0.39;53.84;99618.03;5293932;27;32773;-83
2022/01/08 08:50:49;;;;;;;;;;;;;;;0.32;54.34;99614.47;5320059;27;33351;-84
2022/01/08 08:53:18;;;;;;;;;;;;;;;0.36;54.55;99623.94;5313955;27;33632;-83
2022/01/08 08:55:48;;;;;;;;;;;;;;;0.55;54.89;99632.06;5316517;27;33976;-83
2022/01/08 08:58:16;;;;;;;;;;;;;;;0.53;54.91;99637.13;5314723;27;33913;-83
2022/01/08 09:00:44;;;;;;;;;;;;;;;0.67;54.56;99631.50;5313313;27;33044;-83
2022/01/08 09:03:16;;;;;;;;;;;;;;;0.68;54.95;99636.66;5320371;27;35004;-83
2022/01/08 09:05:45;;;;;;;;;;;;;;;0.82;54.49;99625.13;5320266;27;33946;-84
2022/01/08 09:08:13;;;;;;;;;;;;;;;0.75;54.55;99610.47;5313990;27;34462;-83
2022/01/08 09:10:41;;;;;;;;;;;;;;;0.41;55.25;99607.06;5312463;27;33341;-83
2022/01/08 09:13:10;;;;;;;;;;;;;;;0.30;55.17;99613.53;5314872;27;34754;-84
2022/01/08 09:15:41;;;;;;;;;;;;;;;0.82;53.91;99608.91;5313787;27;34193;-84
2022/01/08 09:18:10;;;;;;;;;;;;;;;0.21;55.25;99610.75;5321231;27;33860;-83
2022/01/08 09:20:40;;;;;;;;;;;;;;;0.44;54.81;99608.81;5315615;27;34065;-83
2022/01/08 09:23:08;;;;;;;;;;;;;;;0.90;53.33;99609.12;5313966;27;34127;-83
2022/01/08 09:25:37;;;;;;;;;;;;;;;0.71;53.91;99610.34;5314967;27;34824;-83
2022/01/08 09:28:05;;;;;;;;;;;;;;;0.93;53.94;99607.47;5315193;27;35055;-84
2022/01/08 09:30:34;;;;;;;;;;;;;;;0.47;54.77;99602.94;5311088;27;33640;-84
2022/01/08 09:33:02;;;;;;;;;;;;;;;0.67;54.02;99593.22;5314808;27;33569;-84
2022/01/08 09:35:31;;;;;;;;;;;;;;;0.83;53.78;99593.62;5314789;27;34664;-84
2022/01/08 09:38:00;;;;;;;;;;;;;;;0.98;53.93;99590.56;5314554;27;34951;-84
2022/01/08 09:40:29;;;;;;;;;;;;;;;0.59;55.14;99586.22;5314980;27;33502;-84
2022/01/08 09:42:58;;;;;;;;;;;;;;;0.39;55.54;99583.19;5320341;27;34735;-83
2022/01/08 09:45:26;;;;;;;;;;;;;;;0.28;56.25;99586.28;5313577;27;34566;-83
2022/01/08 09:47:55;;;;;;;;;;;;;;;1.25;52.85;99580.13;5314090;27;34848;-82
2022/01/08 09:50:23;;;;;;;;;;;;;;;0.95;54.11;99585.41;5314188;27;33828;-83
2022/01/08 09:52:56;;;;;;;;;;;;;;;0.39;55.79;99575.53;5314353;27;34452;-83
2022/01/08 09:55:29;;;;;;;;;;;;;;;-0.06;57.67;99572.59;5318288;27;34166;-83
2022/01/08 09:57:57;;;;;;;;;;;;;;;-0.09;58.51;99578.50;5320910;27;35804;-83
2022/01/08 10:00:26;;;;;;;;;;;;;;;0.77;56.91;99574.72;5314686;27;34119;-83
2022/01/08 10:02:55;;;;;;;;;;;;;;;1.21;54.70;99577.50;5313623;27;34248;-83
2022/01/08 10:05:23;;;;;;;;;;;;;;;1.18;54.96;99578.25;5313038;27;33594;-83
2022/01/08 10:08:00;;;;;;;;;;;;;;;1.11;55.04;99566.16;5310084;27;34613;-84
2022/01/08 10:10:32;;;;;;;;;;;;;;;1.21;53.84;99568.13;5318032;27;33083;-83
2022/01/08 10:13:01;;;;;;;;;;;;;;;1.73;53.14;99559.81;5312428;27;33514;-84
2022/01/08 10:18:26;;;;;;;;;;;;;;;1.06;55.17;99557.53;5311669;27;34337;-84
2022/01/08 10:20:55;;;;;;;;;;;;;;;0.99;54.50;99546.34;5312308;27;34282;-83
2022/01/08 10:23:24;;;;;;;;;;;;;;;1.34;54.18;99542.84;5311301;27;34258;-83
2022/01/08 10:25:57;;;;;;;;;;;;;;;1.72;52.48;99541.06;5316118;27;35759;-83
2022/01/08 10:28:33;;;;;;;;;;;;;;;0.90;54.05;99537.59;5312196;27;34263;-84
2022/01/08 10:31:08;;;;;;;;;;;;;;;1.34;52.46;99545.38;5312468;27;32976;-85
2022/01/08 10:33:36;;;;;;;;;;;;;;;1.53;51.37;99544.09;5311867;27;33722;-83
2022/01/08 10:36:05;;;;;;;;;;;;;;;1.39;53.37;99546.34;5311381;27;34483;-84
2022/01/08 10:38:33;;;;;;;;;;;;;;;1.81;51.41;99553.16;5312145;27;34414;-83
2022/01/08 10:41:04;;;;;;;;;;;;;;;1.86;51.92;99546.44;5316543;27;32163;-84
2022/01/08 10:43:33;;;;;;;;;;;;;;;1.70;51.87;99541.03;5311292;27;33769;-84
2022/01/08 10:46:09;;;;;;;;;;;;;;;1.97;51.17;99539.00;5311502;27;34933;-84
2022/01/08 10:48:37;;;;;;;;;;;;;;;2.51;49.77;99538.22;5312001;27;34813;-84
2022/01/08 10:51:13;;;;;;;;;;;;;;;2.54;50.09;99538.31;5311732;27;34169;-84
2022/01/08 10:53:51;;;;;;;;;;;;;;;2.55;50.07;99537.44;5313994;27;33983;-83
2022/01/08 10:56:26;;;;;;;;;;;;;;;2.68;49.23;99549.63;5318450;27;33818;-84
2022/01/08 10:58:58;;;;;;;;;;;;;;;2.16;50.66;99553.00;5312329;27;34651;-84
2022/01/08 11:01:35;;;;;;;;;;;;;;;2.23;51.32;99542.88;5312812;27;33067;-84
2022/01/08 11:04:04;;;;;;;;;;;;;;;2.58;49.20;99545.19;5311677;27;34086;-84
2022/01/08 11:06:33;;;;;;;;;;;;;;;2.46;49.95;99545.84;5311969;27;35070;-84
2022/01/08 11:09:02;;;;;;;;;;;;;;;2.66;49.50;99541.06;5314969;27;34349;-85
2022/01/08 11:11:32;;;;;;;;;;;;;;;2.52;49.76;99543.37;5317671;27;33418;-84
2022/01/08 11:14:04;;;;;;;;;;;;;;;2.45;49.78;99533.88;5311238;27;34636;-84
2022/01/08 11:16:33;;;;;;;;;;;;;;;2.62;48.92;99529.03;5291670;27;32728;-84
2022/01/08 11:19:04;;;;;;;;;;;;;;;2.59;48.97;99535.81;5310696;27;34159;-84
2022/01/08 11:21:33;;;;;;;;;;;;;;;2.80;48.24;99531.00;5311826;27;34042;-84
2022/01/08 11:24:01;;;;;;;;;;;;;;;2.73;48.59;99530.09;5316038;27;34581;-85
2022/01/08 11:26:29;;;;;;;;;;;;;;;2.68;48.81;99524.03;5311148;27;34039;-85
2022/01/08 11:29:00;;;;;;;;;;;;;;;2.54;49.04;99528.06;5311185;27;34163;-84
2022/01/08 11:31:29;;;;;;;;;;;;;;;2.59;48.29;99530.69;5311445;27;33423;-85
2022/01/08 11:34:05;;;;;;;;;;;;;;;2.26;48.83;99530.13;5311943;27;34130;-85
2022/01/08 11:36:34;;;;;;;;;;;;;;;2.16;49.67;99538.50;5318342;27;33648;-85
2022/01/08 11:39:09;;;;;;;;;;;;;;;1.95;50.85;99532.97;5315906;27;33924;-85
2022/01/08 11:41:38;;;;;;;;;;;;;;;2.21;50.30;99529.19;5311322;27;33920;-85
2022/01/08 11:44:08;;;;;;;;;;;;;;;2.45;50.23;99531.31;5313151;27;34827;-85
2022/01/08 11:46:37;;;;;;;;;;;;;;;2.46;49.96;99530.47;5311785;27;33772;-85
2022/01/08 11:49:06;;;;;;;;;;;;;;;2.73;49.50;99527.50;5292235;27;32215;-85
2022/01/08 11:51:35;;;;;;;;;;;;;;;2.61;49.63;99521.31;5316719;27;33569;-85
2022/01/08 11:54:04;;;;;;;;;;;;;;;2.95;47.99;99523.56;5311878;27;33913;-85
2022/01/08 11:56:34;;;;;;;;;;;;;;;2.77;48.74;99525.84;5311275;27;33702;-85
2022/01/08 11:59:05;;;;;;;;;;;;;;;3.36;47.34;99519.88;5311290;27;34614;-86
2022/01/08 12:01:35;;;;;;;;;;;;;;;2.97;48.51;99526.13;5312868;27;32618;-85
2022/01/08 12:04:04;;;;;;;;;;;;;;;3.09;47.31;99510.09;5317079;27;33359;-85
2022/01/08 12:06:35;;;;;;;;;;;;;;;2.94;47.73;99500.47;5311643;27;34378;-85
2022/01/08 12:09:23;;;;;;;;;;;;;;;3.19;46.59;99499.13;5311073;27;33710;-85
2022/01/08 12:11:56;;;;;;;;;;;;;;;2.87;47.87;99498.66;5311420;27;33338;-85
2022/01/08 12:14:26;;;;;;;;;;;;;;;2.74;48.86;99487.38;5311830;27;35401;-85
2022/01/08 12:16:56;;;;;;;;;;;;;;;2.96;48.45;99484.28;5311776;27;35066;-85
2022/01/08 12:19:28;;;;;;;;;;;;;;;3.44;46.47;99482.34;5316827;27;34832;-86
2022/01/08 12:21:56;;;;;;;;;;;;;;;3.22;46.78;99486.34;5310844;27;33035;-86
2022/01/08 12:24:37;;;;;;;;;;;;;;;3.11;47.25;99485.34;5309676;27;34394;-85
2022/01/08 12:27:22;;;;;;;;;;;;;;;3.14;46.82;99468.31;5311032;27;34194;-85
2022/01/08 12:29:51;;;;;;;;;;;;;;;3.25;46.90;99465.03;5311080;27;34257;-86
2022/01/08 12:32:34;;;;;;;;;;;;;;;3.41;46.37;99464.38;5312331;27;33705;-86
2022/01/08 12:35:19;;;;;;;;;;;;;;;3.51;45.55;99460.22;5312375;27;34888;-86
2022/01/08 12:37:48;;;;;;;;;;;;;;;3.63;45.32;99453.50;5315323;27;34190;-86
2022/01/08 12:40:32;;;;;;;;;;;;;;;3.97;43.87;99453.84;5311437;27;33933;-85
2022/01/08 12:43:01;;;;;;;;;;;;;;;3.71;44.09;99451.03;5310067;27;31996;-86
2022/01/08 12:45:31;;;;;;;;;;;;;;;3.66;45.09;99451.81;5311880;27;34181;-85
2022/01/08 12:48:08;;;;;;;;;;;;;;;3.37;45.54;99455.78;5311535;27;34465;-86
2022/01/08 12:50:37;;;;;;;;;;;;;;;3.40;45.66;99453.22;5310983;27;34065;-86
2022/01/08 12:53:21;;;;;;;;;;;;;;;3.71;45.15;99448.47;5317924;27;34663;-86
2022/01/08 12:56:09;;;;;;;;;;;;;;;3.83;44.80;99440.03;5318505;27;34156;-85
2022/01/08 12:58:39;;;;;;;;;;;;;;;3.78;44.10;99439.97;5312175;27;33943;-86
2022/01/08 13:01:08;;;;;;;;;;;;;;;3.84;44.46;99436.59;5312054;27;34822;-85
2022/01/08 13:03:38;;;;;;;;;;;;;;;3.95;44.86;99435.00;5314571;27;34061;-86
2022/01/08 13:06:20;;;;;;;;;;;;;;;3.94;44.27;99428.16;5310030;27;34728;-86
2022/01/08 13:08:49;;;;;;;;;;;;;;;3.93;43.50;99423.00;5311938;27;33832;-85
2022/01/08 13:11:18;;;;;;;;;;;;;;;4.04;42.89;99426.56;5318577;27;34226;-86
2022/01/08 13:13:47;;;;;;;;;;;;;;;4.26;42.11;99431.00;5311773;27;33250;-87
2022/01/08 13:16:16;;;;;;;;;;;;;;;4.32;41.59;99425.06;5311936;27;34042;-85
2022/01/08 13:18:49;;;;;;;;;;;;;;;4.45;40.78;99431.16;5313279;27;34671;-87
2022/01/08 13:21:18;;;;;;;;;;;;;;;4.39;40.78;99426.81;5311284;27;34853;-85